Time;durP1;ratioP1;P1;durP2;ratioP2;P2;SDS_P1;SDS_P2;PMS_P1;PMS_P2;Temp;Humidity;BMP_temperature;BMP_pressure;BME280_temperature;BME280_humidity;BME280_pressure;Samples;Min_cycle;Max_cycle;Signal;HPM_P1;HPM_P2
2024/03/10 00:04:17;;;;;;;14.13;12.77;;;;;;;4.25;100.00;96987.59;15285346;19;20022;-76
2024/03/10 00:09:42;;;;;;;14.10;12.70;;;;;;;4.27;100.00;96993.59;15289319;19;20765;-76
2024/03/10 00:15:09;;;;;;;15.48;13.80;;;;;;;4.24;100.00;96987.72;15287674;19;20014;-76
2024/03/10 00:20:36;;;;;;;16.58;14.98;;;;;;;4.14;100.00;96980.66;15283921;19;20481;-76
2024/03/10 00:26:05;;;;;;;18.30;16.50;;;;;;;4.14;100.00;96974.53;15283095;19;20053;-77
2024/03/10 00:31:30;;;;;;;19.08;17.17;;;;;;;4.18;100.00;96981.19;15281272;19;20481;-76
2024/03/10 00:36:58;;;;;;;18.90;17.00;;;;;;;4.21;100.00;96986.22;15304322;19;20493;-76
2024/03/10 00:42:23;;;;;;;16.05;14.43;;;;;;;4.11;100.00;96972.16;15303179;19;20617;-76
2024/03/10 00:47:48;;;;;;;14.73;13.20;;;;;;;3.80;100.00;96964.63;15305007;19;20010;-76
2024/03/10 00:53:15;;;;;;;18.45;16.50;;;;;;;3.67;100.00;96957.88;15296194;19;20026;-76
2024/03/10 00:58:40;;;;;;;25.00;22.30;;;;;;;3.67;100.00;96951.69;15302007;19;20361;-75
2024/03/10 01:04:08;;;;;;;27.98;25.09;;;;;;;3.75;100.00;96932.28;14972615;19;5002426;-75
2024/03/10 01:09:36;;;;;;;29.10;26.20;;;;;;;3.81;100.00;96932.50;15293846;19;20469;-76
2024/03/10 01:15:00;;;;;;;29.02;26.13;;;;;;;3.88;100.00;96927.38;15290818;19;20370;-74
2024/03/10 01:20:26;;;;;;;27.65;24.85;;;;;;;3.89;100.00;96923.72;15297060;19;20026;-76
2024/03/10 01:25:53;;;;;;;28.40;25.27;;;;;;;3.88;100.00;96927.38;15292212;19;20503;-76
2024/03/10 01:31:18;;;;;;;27.13;24.42;;;;;;;3.84;100.00;96923.34;15296087;19;20024;-77
2024/03/10 01:36:42;;;;;;;27.27;24.48;;;;;;;3.79;100.00;96917.66;15300218;19;20403;-77
2024/03/10 01:42:10;;;;;;;28.10;25.20;;;;;;;3.72;100.00;96917.44;15306855;19;20474;-77
2024/03/10 01:47:34;;;;;;;28.88;25.80;;;;;;;3.66;100.00;96920.72;15304382;19;20357;-77
2024/03/10 01:58:49;;;;;;;29.67;26.65;;;;;;;3.68;100.00;96918.72;15354144;19;20485;-76
2024/03/10 02:04:14;;;;;;;29.13;26.05;;;;;;;3.69;100.00;96929.25;15289237;19;20078;-77
2024/03/10 02:09:39;;;;;;;28.27;25.33;;;;;;;3.66;100.00;96912.72;15292375;19;20015;-76
2024/03/10 02:15:12;;;;;;;29.70;26.48;;;;;;;3.57;100.00;96913.66;15289933;19;20018;-76
2024/03/10 02:20:38;;;;;;;30.90;27.70;;;;;;;3.52;100.00;96900.81;15292821;19;20098;-76
2024/03/10 02:26:05;;;;;;;31.92;28.63;;;;;;;3.54;100.00;96902.31;15287236;19;20007;-76
2024/03/10 02:48:31;;;;;;;28.83;25.83;;;;;;;3.50;100.00;96897.47;15295030;19;20025;-76
2024/03/10 02:53:56;;;;;;;28.52;25.52;;;;;;;3.42;100.00;96900.06;15294942;19;20488;-75
2024/03/10 02:59:24;;;;;;;30.42;27.13;;;;;;;3.23;100.00;96891.28;15290734;19;20518;-76
2024/03/10 03:04:49;;;;;;;31.42;28.23;;;;;;;3.14;100.00;96895.69;15287183;19;20098;-76
2024/03/10 03:10:14;;;;;;;32.38;29.08;;;;;;;3.13;100.00;96879.84;15288116;19;20576;-77
2024/03/10 03:15:42;;;;;;;30.63;27.50;;;;;;;3.12;100.00;96879.03;15294656;19;20098;-76
2024/03/10 03:21:08;;;;;;;29.00;26.02;;;;;;;3.09;100.00;96879.31;15291137;19;20352;-77
2024/03/10 03:26:39;;;;;;;29.65;26.02;;;;;;;3.00;100.00;96886.38;15287159;19;20027;-57
2024/03/10 03:32:09;;;;;;;28.00;25.08;;;;;;;2.77;100.00;96876.19;15289992;19;20022;-57
2024/03/10 03:37:33;;;;;;;30.17;26.92;;;;;;;2.50;100.00;96860.28;15034500;19;5000902;-55
2024/03/10 03:42:58;;;;;;;32.63;28.55;;;;;;;2.34;100.00;96858.28;15290876;19;20347;-57
2024/03/10 03:48:25;;;;;;;34.53;30.77;;;;;;;2.27;100.00;96860.69;15296605;19;20376;-55
2024/03/10 03:53:50;;;;;;;34.33;30.63;;;;;;;2.28;100.00;96870.34;15284960;19;20035;-54
2024/03/10 03:59:14;;;;;;;32.75;29.30;;;;;;;2.30;100.00;96873.66;15298159;19;20018;-55
2024/03/10 04:04:44;;;;;;;32.47;28.98;;;;;;;2.17;100.00;96867.88;15280097;19;20362;-53
2024/03/10 04:10:09;;;;;;;36.45;32.28;;;;;;;1.98;100.00;96849.22;15281440;19;20018;-56
2024/03/10 04:15:35;;;;;;;43.13;36.10;;;;;;;2.06;100.00;96848.47;15285353;19;20097;-55
2024/03/10 04:21:02;;;;;;;43.03;38.33;;;;;;;2.35;100.00;96849.31;15282743;19;20015;-55
2024/03/10 04:26:34;;;;;;;41.83;35.60;;;;;;;2.52;100.00;96863.63;15287293;19;20018;-52
2024/03/10 04:31:59;;;;;;;40.28;34.30;;;;;;;2.62;100.00;96849.28;15281681;19;20011;-54
2024/03/10 04:37:27;;;;;;;39.08;33.60;;;;;;;2.69;100.00;96856.66;15283787;19;20019;-55
2024/03/10 04:42:54;;;;;;;34.00;30.27;;;;;;;2.68;100.00;96855.81;15287394;19;20015;-52
2024/03/10 04:48:18;;;;;;;32.10;28.70;;;;;;;2.61;100.00;96854.75;15290524;19;20064;-54
2024/03/10 04:53:46;;;;;;;31.55;28.25;;;;;;;2.53;100.00;96836.06;15280092;19;20026;-55
2024/03/10 04:59:10;;;;;;;34.38;30.40;;;;;;;2.56;100.00;96830.44;15291326;19;20018;-52
2024/03/10 05:04:35;;;;;;;33.13;29.52;;;;;;;2.64;100.00;96830.53;15285261;19;20020;-53
2024/03/10 05:10:03;;;;;;;33.83;29.38;;;;;;;2.70;100.00;96827.25;15280612;19;20020;-52
2024/03/10 05:15:28;;;;;;;30.25;27.13;;;;;;;2.71;100.00;96839.56;15285340;19;20505;-53
2024/03/10 05:20:52;;;;;;;26.98;24.15;;;;;;;2.57;100.00;96834.75;15291666;19;20098;-56
2024/03/10 05:26:27;;;;;;;26.52;23.73;;;;;;;2.32;100.00;96831.84;15286187;19;20029;-55
2024/03/10 05:31:52;;;;;;;31.38;27.27;;;;;;;2.14;100.00;96827.31;15297910;19;20488;-55
2024/03/10 05:37:17;;;;;;;37.97;32.88;;;;;;;2.22;100.00;96828.41;15301332;19;20114;-56
2024/03/10 05:42:44;;;;;;;38.33;33.17;;;;;;;2.34;100.00;96821.06;15295484;19;20735;-55
2024/03/10 05:48:11;;;;;;;38.17;32.70;;;;;;;2.45;100.00;96820.88;15301257;19;20453;-54
2024/03/10 05:53:36;;;;;;;37.50;32.45;;;;;;;2.51;100.00;96822.09;15296178;19;20018;-54
2024/03/10 05:59:04;;;;;;;38.35;31.85;;;;;;;2.55;100.00;96829.59;15300940;19;20011;-52
2024/03/10 06:04:30;;;;;;;34.90;30.63;;;;;;;2.52;100.00;96813.13;15293284;19;20085;-56
2024/03/10 06:09:54;;;;;;;32.67;29.17;;;;;;;2.41;100.00;96785.75;15299309;19;20478;-55
2024/03/10 06:15:22;;;;;;;38.00;32.53;;;;;;;2.47;100.00;96785.16;15289534;19;20041;-53
2024/03/10 06:26:24;;;;;;;36.83;32.33;;;;;;;2.63;100.00;96786.31;15294567;19;20018;-55
2024/03/10 06:31:55;;;;;;;34.03;30.33;;;;;;;2.69;100.00;96795.50;15295511;19;20914;-56
2024/03/10 06:37:20;;;;;;;34.35;30.65;;;;;;;2.70;100.00;96803.31;15299745;19;20095;-55
2024/03/10 06:42:45;;;;;;;36.15;31.33;;;;;;;2.74;100.00;96806.50;15290540;19;20035;-56
2024/03/10 06:48:15;;;;;;;36.15;31.65;;;;;;;2.84;100.00;96817.09;15294306;19;20021;-56
2024/03/10 06:53:42;;;;;;;35.58;30.77;;;;;;;2.92;100.00;96822.47;15292286;19;20533;-60
2024/03/10 06:59:07;;;;;;;31.33;28.10;;;;;;;3.01;100.00;96821.53;15296735;19;20099;-56
2024/03/10 07:04:35;;;;;;;27.85;25.05;;;;;;;3.08;100.00;96824.44;15294855;19;20049;-55
2024/03/10 07:10:00;;;;;;;27.75;24.95;;;;;;;3.08;100.00;96819.09;15290346;19;20021;-55
2024/03/10 07:15:26;;;;;;;27.42;24.63;;;;;;;3.11;100.00;96813.50;15295260;19;20015;-55
2024/03/10 07:20:53;;;;;;;28.27;25.33;;;;;;;3.22;100.00;96809.75;15286325;19;20056;-53
2024/03/10 07:26:19;;;;;;;27.00;24.20;;;;;;;3.35;100.00;96804.00;15261781;19;20018;-56
2024/03/10 07:31:44;;;;;;;27.55;24.73;;;;;;;3.54;100.00;96826.94;15292392;19;20024;-56
2024/03/10 07:37:12;;;;;;;26.23;23.52;;;;;;;3.68;100.00;96837.03;15292263;19;20011;-56
2024/03/10 07:42:36;;;;;;;25.15;22.55;;;;;;;3.84;100.00;96835.44;15287560;19;20018;-55
2024/03/10 07:48:03;;;;;;;24.90;22.40;;;;;;;3.97;100.00;96825.19;15293982;19;20025;-52
2024/03/10 07:53:31;;;;;;;25.08;22.48;;;;;;;4.07;100.00;96809.09;15286015;19;20024;-55
2024/03/10 07:58:56;;;;;;;23.83;21.40;;;;;;;4.24;100.00;96804.66;15292228;19;20020;-56
2024/03/10 08:04:22;;;;;;;23.35;20.95;;;;;;;4.39;100.00;96802.19;15283454;19;20014;-57
2024/03/10 08:09:49;;;;;;;22.35;19.98;;;;;;;4.55;100.00;96805.91;15283262;19;20102;-55
2024/03/10 08:15:14;;;;;;;22.45;20.17;;;;;;;4.74;100.00;96818.13;15284756;19;20019;-55
2024/03/10 08:20:40;;;;;;;22.98;20.67;;;;;;;4.92;100.00;96817.97;15289591;19;20019;-55
2024/03/10 08:26:09;;;;;;;21.05;19.00;;;;;;;5.07;100.00;96810.13;15286966;19;20023;-56
2024/03/10 08:31:34;;;;;;;20.83;18.73;;;;;;;5.19;100.00;96811.47;15282693;19;20086;-55
2024/03/10 08:36:58;;;;;;;19.02;17.23;;;;;;;5.38;100.00;96801.44;15287384;19;20031;-55
2024/03/10 08:42:27;;;;;;;18.98;17.17;;;;;;;5.57;100.00;96823.47;15288715;19;20010;-56
2024/03/10 08:47:52;;;;;;;16.95;15.32;;;;;;;5.74;100.00;96810.91;15286235;19;20082;-56
2024/03/10 08:53:18;;;;;;;17.33;15.63;;;;;;;5.89;100.00;96819.06;15279580;19;20011;-56
2024/03/10 08:58:48;;;;;;;17.67;15.68;;;;;;;6.06;100.00;96809.19;15305254;19;20022;-57
2024/03/10 09:04:13;;;;;;;17.17;15.48;;;;;;;6.26;100.00;96804.25;15300599;19;20090;-56
2024/03/10 09:09:39;;;;;;;14.95;13.55;;;;;;;6.37;100.00;96779.81;15304146;19;20019;-56
2024/03/10 09:15:08;;;;;;;15.98;14.48;;;;;;;6.45;100.00;96779.75;15300688;19;20023;-56
2024/03/10 09:20:32;;;;;;;15.73;14.15;;;;;;;6.56;100.00;96783.03;15297109;19;20018;-56
2024/03/10 09:25:57;;;;;;;14.88;13.38;;;;;;;6.74;100.00;96775.56;15290008;19;20010;-56
2024/03/10 09:31:25;;;;;;;15.25;13.75;;;;;;;6.92;100.00;96783.31;15294953;19;20505;-52
2024/03/10 09:36:50;;;;;;;14.25;12.90;;;;;;;7.06;100.00;96792.41;15299841;19;20495;-55
2024/03/10 09:42:14;;;;;;;13.73;12.43;;;;;;;7.14;100.00;96786.16;15299182;19;20035;-52
2024/03/10 09:47:43;;;;;;;14.63;13.23;;;;;;;7.27;100.00;96776.69;15296361;19;20034;-55
2024/03/10 09:53:08;;;;;;;12.95;11.75;;;;;;;7.44;100.00;96763.97;15289737;19;20018;-56
2024/03/10 09:58:39;;;;;;;13.60;12.30;;;;;;;7.71;100.00;96744.56;15293935;19;20418;-55
2024/03/10 10:04:10;;;;;;;13.00;11.57;;;;;;;7.95;100.00;96739.94;15288872;19;20035;-55
2024/03/10 10:09:36;;;;;;;11.18;10.00;;;;;;;8.20;100.00;96720.84;15302897;19;20014;-58
2024/03/10 10:15:03;;;;;;;11.63;10.40;;;;;;;8.45;100.00;96715.16;15300806;19;20017;-56
2024/03/10 10:20:32;;;;;;;11.05;9.98;;;;;;;8.65;100.00;96707.34;15294408;19;20080;-51
2024/03/10 10:26:09;;;;;;;10.15;9.15;;;;;;;8.84;100.00;96692.44;15293996;19;20039;-52
2024/03/10 10:31:34;;;;;;;10.40;9.40;;;;;;;9.03;100.00;96693.63;15283365;19;20021;-52
2024/03/10 10:37:03;;;;;;;9.40;8.50;;;;;;;9.21;100.00;96705.75;15296039;19;20022;-56
2024/03/10 10:42:30;;;;;;;9.82;8.93;;;;;;;9.39;100.00;96697.19;15298140;19;20015;-54
2024/03/10 10:48:03;;;;;;;10.40;9.40;;;;;;;9.58;100.00;96667.97;15292780;19;20018;-56
2024/03/10 10:53:31;;;;;;;9.35;8.55;;;;;;;9.74;100.00;96666.81;15293845;19;20018;-55
2024/03/10 10:58:56;;;;;;;9.52;8.45;;;;;;;9.90;100.00;96644.13;15297208;19;20015;-52
2024/03/10 11:04:21;;;;;;;10.65;8.32;;;;;;;9.82;100.00;96620.91;15287650;19;20024;-56
2024/03/10 11:09:49;;;;;;;9.55;8.65;;;;;;;9.83;100.00;96622.56;15289014;19;20029;-56
2024/03/10 11:15:15;;;;;;;9.45;8.60;;;;;;;9.89;100.00;96637.06;15294022;19;20030;-56
2024/03/10 11:20:40;;;;;;;9.60;8.70;;;;;;;10.07;100.00;96637.34;15291960;19;20022;-56
2024/03/10 11:26:12;;;;;;;9.57;8.68;;;;;;;10.29;100.00;96637.22;15290387;19;20090;-55
2024/03/10 11:31:41;;;;;;;9.23;8.40;;;;;;;10.51;100.00;96634.38;15285607;19;20007;-56
2024/03/10 11:37:06;;;;;;;9.52;8.63;;;;;;;10.73;100.00;96629.63;15289927;19;20017;-53
2024/03/10 11:42:34;;;;;;;10.23;8.57;;;;;;;10.91;100.00;96650.56;15295661;19;20015;-52
2024/03/10 11:47:58;;;;;;;9.10;8.20;;;;;;;11.02;100.00;96666.09;15291663;19;20081;-54
2024/03/10 11:53:25;;;;;;;9.27;8.38;;;;;;;11.18;100.00;96672.91;15282579;19;20018;-54
2024/03/10 11:58:57;;;;;;;9.00;8.10;;;;;;;11.41;100.00;96658.16;15294561;19;20014;-55
2024/03/10 12:04:23;;;;;;;8.77;7.88;;;;;;;11.60;100.00;96642.19;15285187;19;20637;-51
2024/03/10 12:09:49;;;;;;;9.25;7.80;;;;;;;11.66;100.00;96635.91;15283389;19;20029;-52
2024/03/10 12:15:20;;;;;;;8.75;7.93;;;;;;;11.64;100.00;96611.88;15285625;19;20094;-54
2024/03/10 12:20:45;;;;;;;8.57;7.78;;;;;;;11.71;100.00;96601.06;15277963;19;20077;-52
2024/03/10 12:26:11;;;;;;;7.15;6.55;;;;;;;11.78;100.00;96579.44;15286146;19;20018;-54
2024/03/10 12:31:38;;;;;;;8.27;7.43;;;;;;;11.90;100.00;96572.34;15278976;19;20023;-52
2024/03/10 12:37:04;;;;;;;12.55;7.85;;;;;;;12.07;100.00;96556.50;15286245;19;20026;-56
2024/03/10 12:42:30;;;;;;;7.05;6.35;;;;;;;12.20;100.00;96544.78;15287702;19;20405;-54
2024/03/10 12:47:59;;;;;;;6.15;5.65;;;;;;;12.35;100.00;96535.53;15290643;19;20019;-56
2024/03/10 12:53:24;;;;;;;4.60;4.20;;;;;;;12.43;100.00;96524.47;15278455;19;20018;-52
2024/03/10 12:58:51;;;;;;;4.70;4.30;;;;;;;12.51;100.00;96526.06;15286306;19;20112;-50
2024/03/10 13:04:19;;;;;;;6.60;4.43;;;;;;;12.50;100.00;96522.56;15292347;19;20023;-57
2024/03/10 13:09:44;;;;;;;5.32;4.82;;;;;;;12.43;100.00;96510.97;15281835;19;20026;-56
2024/03/10 13:15:09;;;;;;;5.18;4.65;;;;;;;12.40;100.00;96511.44;15287081;19;20031;-52
2024/03/10 13:20:36;;;;;;;5.60;4.68;;;;;;;12.41;100.00;96534.66;15278000;19;20031;-53
2024/03/10 13:26:01;;;;;;;5.05;4.55;;;;;;;12.48;100.00;96530.03;15286644;19;20367;-54
2024/03/10 13:31:25;;;;;;;5.30;4.80;;;;;;;12.43;100.00;96538.81;15279246;19;20018;-55
2024/03/10 13:36:54;;;;;;;5.50;5.03;;;;;;;12.36;100.00;96542.59;15286677;19;20026;-54
2024/03/10 13:42:19;;;;;;;5.28;4.78;;;;;;;12.24;100.00;96543.31;15293218;19;20029;-49
2024/03/10 13:47:43;;;;;;;5.05;4.55;;;;;;;12.23;100.00;96538.94;15294269;19;20427;-52
2024/03/10 13:53:11;;;;;;;5.25;4.80;;;;;;;12.24;100.00;96539.75;15290281;19;20019;-53
2024/03/10 13:58:37;;;;;;;4.95;4.55;;;;;;;12.24;100.00;96537.91;15300651;19;20018;-56
2024/03/10 14:04:02;;;;;;;6.47;4.85;;;;;;;12.27;100.00;96529.38;15287641;19;20018;-53
2024/03/10 14:09:30;;;;;;;4.85;4.45;;;;;;;12.33;100.00;96522.28;15297638;19;20098;-53
2024/03/10 14:14:56;;;;;;;4.95;4.55;;;;;;;12.35;100.00;96511.25;15301488;19;20027;-54
2024/03/10 14:20:25;;;;;;;5.15;4.65;;;;;;;12.37;100.00;96514.56;15296235;19;20010;-55
2024/03/10 14:25:53;;;;;;;5.25;4.78;;;;;;;12.36;100.00;96494.00;15296270;19;20029;-54
2024/03/10 14:31:20;;;;;;;5.15;4.65;;;;;;;12.30;100.00;96483.03;15294071;19;20019;-53
2024/03/10 14:36:46;;;;;;;5.15;4.43;;;;;;;12.25;100.00;96472.06;15300086;19;20014;-56
2024/03/10 14:42:16;;;;;;;4.57;4.18;;;;;;;12.19;100.00;96472.94;15299030;19;20022;-55
2024/03/10 14:47:41;;;;;;;4.40;4.00;;;;;;;12.10;100.00;96485.06;15294261;19;20022;-59
2024/03/10 14:53:07;;;;;;;4.55;4.15;;;;;;;12.02;100.00;96488.84;15281739;19;20021;-51
2024/03/10 14:58:36;;;;;;;4.85;4.43;;;;;;;11.98;100.00;96469.56;15296459;19;20019;-53
2024/03/10 15:04:00;;;;;;;5.28;4.78;;;;;;;11.88;100.00;96450.31;15288657;19;20019;-52
2024/03/10 15:09:25;;;;;;;4.93;4.43;;;;;;;11.79;100.00;96440.84;15294398;19;20086;-54
2024/03/10 15:14:53;;;;;;;4.65;4.20;;;;;;;11.68;100.00;96445.88;15295497;19;20019;-55
2024/03/10 15:20:19;;;;;;;4.85;4.45;;;;;;;11.61;100.00;96449.66;15288401;19;20014;-52
2024/03/10 15:25:51;;;;;;;5.18;4.57;;;;;;;11.53;100.00;96465.03;15286392;19;20035;-54
2024/03/10 15:31:19;;;;;;;5.10;4.60;;;;;;;11.51;100.00;96469.00;15288747;19;20029;-51
2024/03/10 15:36:44;;;;;;;7.13;5.10;;;;;;;11.45;100.00;96467.19;15289731;19;20021;-57
2024/03/10 15:42:18;;;;;;;5.50;5.00;;;;;;;11.38;100.00;96481.50;15290630;19;20419;-53
2024/03/10 15:47:55;;;;;;;6.25;5.63;;;;;;;11.30;100.00;96470.97;15293731;19;20086;-52
2024/03/10 15:53:20;;;;;;;6.43;5.82;;;;;;;11.21;100.00;96477.66;15284605;19;20475;-51
2024/03/10 15:58:44;;;;;;;6.68;5.97;;;;;;;11.09;100.00;96477.47;15290573;19;20018;-52
2024/03/10 16:04:18;;;;;;;6.43;5.82;;;;;;;10.98;100.00;96495.13;15289677;19;20029;-52
2024/03/10 16:09:40;;;;;;;6.70;6.15;;;;;;;10.86;100.00;96492.25;15288166;19;20041;-53
2024/03/10 16:15:08;;;;;;;6.55;5.85;;;;;;;10.74;100.00;96497.47;15293615;19;20529;-55
2024/03/10 16:20:40;;;;;;;6.78;6.10;;;;;;;10.62;100.00;96483.78;15295230;19;20025;-54
2024/03/10 16:26:06;;;;;;;6.70;6.10;;;;;;;10.52;100.00;96479.91;15282463;19;20699;-51
2024/03/10 16:31:36;;;;;;;6.95;6.25;;;;;;;10.41;100.00;96490.22;15287079;19;20014;-53
2024/03/10 16:37:07;;;;;;;6.63;6.03;;;;;;;10.32;100.00;96494.13;15287093;19;20022;-53
2024/03/10 16:42:34;;;;;;;7.10;6.50;;;;;;;10.22;100.00;96501.81;15287793;19;20018;-53
2024/03/10 16:48:03;;;;;;;7.15;6.45;;;;;;;10.09;100.00;96491.88;15288000;19;20420;-55
2024/03/10 16:53:30;;;;;;;6.78;6.13;;;;;;;9.97;100.00;96497.00;15284722;19;20035;-55
2024/03/10 16:58:51;;;;;;;7.40;6.70;;;;;;;9.85;100.00;96486.06;15283739;19;20467;-50
2024/03/10 17:04:12;;;;;;;7.70;6.85;;;;;;;9.73;100.00;96482.31;15284817;19;20022;-52
2024/03/10 17:09:48;;;;;;;6.97;6.28;;;;;;;9.61;100.00;96479.38;15285251;19;20315;-52
2024/03/10 17:15:15;;;;;;;7.25;6.53;;;;;;;9.49;100.00;96490.72;15286024;19;20018;-54
2024/03/10 17:20:41;;;;;;;6.95;6.25;;;;;;;9.40;100.00;96490.09;15043927;19;5002384;-54
2024/03/10 17:26:11;;;;;;;6.80;6.18;;;;;;;9.31;100.00;96491.25;15289730;19;20471;-50
2024/03/10 17:31:38;;;;;;;6.70;6.10;;;;;;;9.20;100.00;96492.69;15294424;19;20035;-54
2024/03/10 17:37:04;;;;;;;6.97;6.28;;;;;;;9.07;100.00;96489.94;15298893;19;20018;-52
2024/03/10 17:42:34;;;;;;;7.00;6.30;;;;;;;8.99;100.00;96487.44;15299912;19;20081;-55
2024/03/10 17:47:59;;;;;;;7.80;5.80;;;;;;;8.89;100.00;96493.16;15303309;19;20479;-56
2024/03/10 17:53:25;;;;;;;6.50;5.90;;;;;;;8.78;100.00;96489.16;15293528;19;20018;-56
2024/03/10 17:58:54;;;;;;;7.18;6.47;;;;;;;8.67;100.00;96476.28;15301999;19;20018;-52
2024/03/10 18:04:19;;;;;;;6.70;6.10;;;;;;;8.57;100.00;96480.16;15295335;19;20026;-53
2024/03/10 18:09:46;;;;;;;7.70;7.00;;;;;;;8.48;100.00;96474.09;15299149;19;20014;-51
2024/03/10 18:15:16;;;;;;;6.75;6.15;;;;;;;8.41;100.00;96469.72;15294791;19;20018;-52
2024/03/10 18:20:43;;;;;;;7.13;6.43;;;;;;;8.35;100.00;96471.28;15291818;19;20021;-53
2024/03/10 18:26:16;;;;;;;6.93;6.20;;;;;;;8.26;100.00;96476.00;15292204;19;20018;-57
2024/03/10 18:31:45;;;;;;;7.32;6.63;;;;;;;8.21;100.00;96470.38;15299977;19;20015;-58
2024/03/10 18:37:15;;;;;;;7.35;6.55;;;;;;;8.14;100.00;96475.69;15034551;19;5002144;-56
2024/03/10 18:42:43;;;;;;;8.35;6.35;;;;;;;8.04;100.00;96466.31;15295547;19;20085;-53
2024/03/10 18:48:13;;;;;;;8.15;6.13;;;;;;;7.94;100.00;96461.28;15293516;19;20485;-56
2024/03/10 18:53:40;;;;;;;8.48;6.30;;;;;;;7.85;100.00;96460.59;15294011;19;20023;-55
2024/03/10 18:59:08;;;;;;;6.85;6.05;;;;;;;7.78;100.00;96470.44;15297433;19;20035;-55
2024/03/10 19:04:35;;;;;;;6.78;6.13;;;;;;;7.72;100.00;96478.19;15297045;19;20019;-55
2024/03/10 19:10:01;;;;;;;6.90;6.30;;;;;;;7.67;100.00;96480.63;15291545;19;20018;-56
2024/03/10 19:15:27;;;;;;;6.97;6.38;;;;;;;7.64;100.00;96474.84;15035397;19;5001725;-57
2024/03/10 19:20:59;;;;;;;7.85;6.18;;;;;;;7.61;100.00;96465.31;15295322;19;20018;-57
2024/03/10 19:26:32;;;;;;;7.20;6.50;;;;;;;7.55;100.00;96466.09;15295692;19;20046;-56
2024/03/10 19:31:58;;;;;;;7.50;6.70;;;;;;;7.46;100.00;96468.03;15291690;19;20082;-57
2024/03/10 19:37:27;;;;;;;7.28;6.57;;;;;;;7.38;100.00;96470.84;15290180;19;20029;-55
2024/03/10 19:42:54;;;;;;;6.95;6.25;;;;;;;7.32;100.00;96472.44;15328363;19;20471;-58
2024/03/10 19:48:22;;;;;;;9.02;7.10;;;;;;;7.25;100.00;96474.19;15290549;19;20038;-57
2024/03/10 19:53:50;;;;;;;7.43;6.63;;;;;;;7.17;100.00;96479.66;15286016;19;20015;-56
2024/03/10 19:59:17;;;;;;;7.60;6.90;;;;;;;7.14;100.00;96491.59;15292165;19;20014;-58
2024/03/10 20:04:43;;;;;;;11.25;6.95;;;;;;;7.12;100.00;96476.72;15286657;19;20026;-50
2024/03/10 20:10:12;;;;;;;8.43;6.72;;;;;;;7.20;100.00;96484.66;15277120;19;20065;-50
2024/03/10 20:15:41;;;;;;;7.63;6.87;;;;;;;7.20;100.00;96480.13;15278917;19;20025;-48
2024/03/10 20:21:07;;;;;;;8.60;6.70;;;;;;;7.21;100.00;96483.63;15274091;19;20102;-49
2024/03/10 20:26:34;;;;;;;7.50;6.80;;;;;;;7.23;100.00;96481.63;15276633;19;20037;-49
2024/03/10 20:32:01;;;;;;;7.47;6.63;;;;;;;7.26;100.00;96483.88;15278849;19;20032;-49
2024/03/10 20:37:27;;;;;;;7.55;6.63;;;;;;;7.25;100.00;96476.88;15288138;19;20034;-50
2024/03/10 20:43:00;;;;;;;7.80;6.72;;;;;;;7.25;100.00;96477.72;15278499;19;20117;-49
2024/03/10 20:48:26;;;;;;;7.72;6.93;;;;;;;7.22;100.00;96477.28;15285761;19;20022;-50
2024/03/10 20:53:52;;;;;;;7.80;7.10;;;;;;;7.19;100.00;96466.94;15299030;19;20240;-51
2024/03/10 20:59:20;;;;;;;7.63;6.82;;;;;;;7.19;100.00;96477.63;15307586;19;20102;-48
2024/03/10 21:04:45;;;;;;;8.00;7.20;;;;;;;7.13;100.00;96479.22;15297474;19;20356;-51
2024/03/10 21:10:14;;;;;;;7.50;6.72;;;;;;;7.07;100.00;96479.94;15294344;19;20014;-50
2024/03/10 21:15:45;;;;;;;8.35;7.22;;;;;;;7.05;100.00;96479.34;15294194;19;20440;-51
2024/03/10 21:21:11;;;;;;;7.55;6.80;;;;;;;7.02;100.00;96474.34;15299316;19;20024;-50
2024/03/10 21:26:43;;;;;;;8.15;7.03;;;;;;;7.01;100.00;96468.13;15293604;19;20017;-50
2024/03/10 21:32:11;;;;;;;9.10;7.05;;;;;;;7.01;100.00;96475.34;15290326;19;20018;-50
2024/03/10 21:37:37;;;;;;;8.13;6.95;;;;;;;6.97;100.00;96466.03;15304675;19;20474;-50
2024/03/10 21:43:03;;;;;;;7.65;6.93;;;;;;;6.97;100.00;96453.50;15301278;19;20050;-49
2024/03/10 21:48:30;;;;;;;7.53;6.72;;;;;;;6.99;100.00;96456.81;15296670;19;20011;-48
2024/03/10 21:53:56;;;;;;;7.40;6.70;;;;;;;7.04;100.00;96475.00;15294548;19;20018;-51
2024/03/10 21:59:23;;;;;;;8.15;7.35;;;;;;;6.98;100.00;96481.94;15298539;19;20046;-49
2024/03/10 22:04:50;;;;;;;7.32;6.63;;;;;;;6.91;100.00;96475.63;15302273;19;20022;-50
2024/03/10 22:10:18;;;;;;;7.28;6.57;;;;;;;6.76;100.00;96478.31;15289954;19;20021;-50
2024/03/10 22:15:44;;;;;;;8.10;7.30;;;;;;;6.64;100.00;96453.91;15291180;19;20101;-50
2024/03/10 22:21:12;;;;;;;8.50;7.47;;;;;;;6.70;100.00;96445.13;15291833;19;20375;-50
2024/03/10 22:26:39;;;;;;;8.93;8.02;;;;;;;6.78;100.00;96444.19;15299562;19;20026;-49
2024/03/10 22:32:05;;;;;;;9.13;8.23;;;;;;;6.81;100.00;96437.63;15295029;19;20018;-50
2024/03/10 22:37:33;;;;;;;9.02;8.13;;;;;;;6.86;100.00;96451.28;15303390;19;20042;-49
2024/03/10 22:43:00;;;;;;;10.57;9.10;;;;;;;6.86;100.00;96462.00;15291153;19;20022;-50
2024/03/10 22:48:25;;;;;;;9.18;8.23;;;;;;;6.79;100.00;96486.00;15300302;19;20014;-51
2024/03/10 22:53:53;;;;;;;12.38;8.18;;;;;;;6.74;100.00;96499.09;15286420;19;20096;-50
2024/03/10 22:59:18;;;;;;;8.82;8.00;;;;;;;6.69;100.00;96498.81;15297319;19;20042;-49
2024/03/10 23:04:42;;;;;;;9.00;8.10;;;;;;;6.61;100.00;96502.41;15294701;19;20038;-49
2024/03/10 23:10:12;;;;;;;9.07;8.18;;;;;;;6.52;100.00;96520.38;15289644;19;20018;-51
2024/03/10 23:15:37;;;;;;;9.32;8.35;;;;;;;6.40;100.00;96520.03;15290702;19;20021;-49
2024/03/10 23:21:02;;;;;;;9.88;8.45;;;;;;;6.36;100.00;96537.44;15289597;19;20021;-52
2024/03/10 23:26:30;;;;;;;11.32;9.20;;;;;;;6.22;100.00;96535.53;15288075;19;20107;-47
2024/03/10 23:31:56;;;;;;;9.85;8.90;;;;;;;6.10;100.00;96551.19;15281114;19;20014;-49
2024/03/10 23:37:20;;;;;;;10.30;9.30;;;;;;;6.13;100.00;96565.03;15288509;19;20019;-48
2024/03/10 23:42:50;;;;;;;10.90;9.50;;;;;;;6.12;100.00;96552.66;15289645;19;20025;-47
2024/03/10 23:48:16;;;;;;;10.40;9.23;;;;;;;6.14;100.00;96563.19;15293500;19;20498;-48
2024/03/10 23:53:43;;;;;;;10.05;9.05;;;;;;;6.19;100.00;96573.31;15288857;19;20027;-52
2024/03/10 23:59:10;;;;;;;10.23;9.25;;;;;;;6.19;100.00;96568.81;15287958;19;20011;-49
